Time;durP1;ratioP1;P1;durP2;ratioP2;P2;SDS_P1;SDS_P2;PMS_P1;PMS_P2;Temp;Humidity;BMP_temperature;BMP_pressure;BME280_temperature;BME280_humidity;BME280_pressure;Samples;Min_cycle;Max_cycle;Signal;HPM_P1;HPM_P2
2022/08/31 00:04:37;;;;;;;;;;;24.60;53.40;;;;;;6245366;28;20043;-41
2022/08/31 00:07:38;;;;;;;;;;;24.70;53.60;;;;;;6247400;28;20215;-38
2022/08/31 00:10:44;;;;;;;;;;;24.20;53.20;;;;;;6245344;28;19939;-39
2022/08/31 00:13:46;;;;;;;;;;;24.50;53.30;;;;;;6227796;28;20742;-40
2022/08/31 00:16:47;;;;;;;;;;;24.60;53.40;;;;;;6248279;28;20030;-40
2022/08/31 00:19:49;;;;;;;;;;;24.70;53.40;;;;;;6250322;28;19932;-41
2022/08/31 00:22:51;;;;;;;;;;;24.50;53.30;;;;;;6252631;28;20927;-39
2022/08/31 00:25:52;;;;;;;;;;;24.50;53.30;;;;;;6253189;28;20066;-39
2022/08/31 00:28:54;;;;;;;;;;;24.40;53.20;;;;;;6248685;28;20875;-40
2022/08/31 00:31:55;;;;;;;;;;;24.60;53.30;;;;;;6250587;28;19932;-40
2022/08/31 00:35:03;;;;;;;;;;;24.70;53.30;;;;;;6252123;28;19973;-40
2022/08/31 00:38:05;;;;;;;;;;;24.70;53.40;;;;;;6251692;28;19932;-41
2022/08/31 00:41:07;;;;;;;;;;;24.70;53.90;;;;;;6252845;28;19978;-43
2022/08/31 00:44:09;;;;;;;;;;;24.70;53.40;;;;;;6235553;28;19932;-40
2022/08/31 00:47:11;;;;;;;;;;;24.80;53.40;;;;;;6245057;28;20126;-40
2022/08/31 00:50:14;;;;;;;;;;;24.70;53.30;;;;;;6254141;28;19932;-42
2022/08/31 00:53:16;;;;;;;;;;;24.80;53.40;;;;;;6252199;28;19928;-40
2022/08/31 00:56:18;;;;;;;;;;;24.70;53.40;;;;;;6255066;28;19931;-40
2022/08/31 00:59:19;;;;;;;;;;;24.40;53.20;;;;;;6254232;28;20046;-41
2022/08/31 01:02:21;;;;;;;;;;;24.90;53.50;;;;;;6251188;28;19939;-39
2022/08/31 01:05:23;;;;;;;;;;;24.60;53.30;;;;;;6253665;28;19935;-39
2022/08/31 01:08:25;;;;;;;;;;;24.50;53.20;;;;;;6256490;28;20832;-40
2022/08/31 01:11:32;;;;;;;;;;;24.50;53.20;;;;;;6254197;28;19959;-40
2022/08/31 01:14:34;;;;;;;;;;;24.90;53.40;;;;;;6240216;28;21002;-41
2022/08/31 01:17:35;;;;;;;;;;;24.70;53.30;;;;;;6240329;28;20829;-38
2022/08/31 01:20:45;;;;;;;;;;;24.80;53.40;;;;;;6254712;28;20760;-40
2022/08/31 01:23:52;;;;;;;;;;;24.50;53.20;;;;;;6257958;28;19932;-39
2022/08/31 01:26:55;;;;;;;;;;;24.60;53.30;;;;;;6256667;28;20916;-40
2022/08/31 01:29:58;;;;;;;;;;;24.70;53.30;;;;;;6241104;28;19924;-40
2022/08/31 01:33:02;;;;;;;;;;;24.70;53.40;;;;;;6252995;28;19932;-40
2022/08/31 01:36:05;;;;;;;;;;;24.60;53.30;;;;;;6257601;28;19999;-39
2022/08/31 01:39:09;;;;;;;;;;;24.90;53.40;;;;;;6254813;28;20022;-42
2022/08/31 01:42:11;;;;;;;;;;;24.70;53.40;;;;;;6258202;28;19924;-41
2022/08/31 01:45:12;;;;;;;;;;;24.70;53.40;;;;;;6257514;28;19928;-39
2022/08/31 01:48:14;;;;;;;;;;;24.50;53.20;;;;;;6258186;28;20547;-41
2022/08/31 01:51:17;;;;;;;;;;;24.90;53.40;;;;;;6237311;28;19932;-39
2022/08/31 01:54:21;;;;;;;;;;;24.70;53.40;;;;;;6235012;28;19939;-41
2022/08/31 01:57:22;;;;;;;;;;;24.70;53.40;;;;;;6256041;28;20707;-39
2022/08/31 02:00:46;;;;;;;;;;;24.50;53.30;;;;;;6252881;28;19928;-41
2022/08/31 02:03:48;;;;;;;;;;;24.70;53.40;;;;;;6248444;28;19925;-40
2022/08/31 02:06:54;;;;;;;;;;;25.10;53.60;;;;;;6256636;28;20017;-39
2022/08/31 02:09:55;;;;;;;;;;;24.70;53.50;;;;;;6236463;28;21021;-39
2022/08/31 02:12:57;;;;;;;;;;;25.20;53.70;;;;;;6254526;28;19932;-39
2022/08/31 02:16:07;;;;;;;;;;;24.60;53.40;;;;;;6255866;28;20545;-40
2022/08/31 02:19:08;;;;;;;;;;;24.70;53.50;;;;;;6254461;28;19939;-39
2022/08/31 02:22:09;;;;;;;;;;;24.90;53.60;;;;;;6253165;28;19940;-39
2022/08/31 02:25:11;;;;;;;;;;;24.70;53.50;;;;;;6256230;28;20025;-40
2022/08/31 02:28:13;;;;;;;;;;;24.80;53.50;;;;;;6251937;28;19932;-39
2022/08/31 02:31:14;;;;;;;;;;;24.60;53.40;;;;;;6256341;28;19932;-40
2022/08/31 02:34:28;;;;;;;;;;;24.60;53.50;;;;;;6254342;28;19935;-39
2022/08/31 02:37:29;;;;;;;;;;;24.80;53.60;;;;;;6253652;28;19982;-41
2022/08/31 02:40:32;;;;;;;;;;;24.60;53.40;;;;;;6256372;28;19928;-39
2022/08/31 02:43:33;;;;;;;;;;;24.60;53.50;;;;;;6253253;28;20115;-40
2022/08/31 02:46:35;;;;;;;;;;;24.90;53.70;;;;;;6237835;28;19964;-40
2022/08/31 02:49:56;;;;;;;;;;;24.60;53.60;;;;;;6255757;28;20001;-40
2022/08/31 02:52:57;;;;;;;;;;;24.70;53.60;;;;;;6253006;28;20046;-39
2022/08/31 02:56:00;;;;;;;;;;;24.60;53.60;;;;;;6258086;28;19932;-39
2022/08/31 02:59:01;;;;;;;;;;;24.70;53.60;;;;;;6256361;28;20320;-39
2022/08/31 03:02:03;;;;;;;;;;;24.90;53.70;;;;;;6253224;28;19932;-40
2022/08/31 03:05:11;;;;;;;;;;;24.60;53.60;;;;;;6250988;28;19924;-39
2022/08/31 03:08:13;;;;;;;;;;;24.60;53.60;;;;;;6253569;28;19931;-41
2022/08/31 03:11:18;;;;;;;;;;;24.70;53.60;;;;;;6253064;28;19931;-39
2022/08/31 03:14:20;;;;;;;;;;;24.40;53.50;;;;;;6235972;28;21025;-38
2022/08/31 03:17:21;;;;;;;;;;;24.70;54.30;;;;;;6256160;28;19938;-39
2022/08/31 03:20:23;;;;;;;;;;;24.60;53.60;;;;;;6246185;28;19928;-40
2022/08/31 03:23:27;;;;;;;;;;;24.80;53.70;;;;;;6247093;28;19964;-38
2022/08/31 03:26:29;;;;;;;;;;;24.60;53.60;;;;;;6248878;28;20860;-41
2022/08/31 03:29:30;;;;;;;;;;;25.00;53.80;;;;;;6246880;28;19954;-38
2022/08/31 03:32:47;;;;;;;;;;;24.60;53.70;;;;;;6237513;28;20402;-39
2022/08/31 03:35:48;;;;;;;;;;;24.90;53.80;;;;;;6247780;28;19929;-39
2022/08/31 03:38:50;;;;;;;;;;;24.70;53.60;;;;;;6252804;28;19928;-40
2022/08/31 03:41:53;;;;;;;;;;;24.80;53.70;;;;;;6249631;28;20453;-40
2022/08/31 03:44:56;;;;;;;;;;;24.70;53.60;;;;;;6255160;28;20052;-41
2022/08/31 03:48:05;;;;;;;;;;;24.70;53.60;;;;;;6252836;28;20056;-39
2022/08/31 03:51:15;;;;;;;;;;;24.80;53.70;;;;;;6258109;28;20005;-40
2022/08/31 03:54:18;;;;;;;;;;;24.60;53.70;;;;;;6258667;28;20794;-40
2022/08/31 03:57:20;;;;;;;;;;;24.70;53.70;;;;;;6242725;28;20971;-40
2022/08/31 04:00:22;;;;;;;;;;;24.80;53.80;;;;;;6255626;28;19932;-43
2022/08/31 04:03:29;;;;;;;;;;;24.60;53.70;;;;;;6223656;28;20748;-41
2022/08/31 04:06:53;;;;;;;;;;;24.60;53.80;;;;;;6257348;28;20847;-41
2022/08/31 04:10:07;;;;;;;;;;;24.60;53.80;;;;;;6259465;28;19932;-40
2022/08/31 04:13:29;;;;;;;;;;;24.70;53.90;;;;;;6242376;28;20751;-38
2022/08/31 04:16:46;;;;;;;;;;;24.50;53.80;;;;;;6253927;28;19933;-40
2022/08/31 04:20:06;;;;;;;;;;;24.50;54.40;;;;;;6251368;28;19932;-40
2022/08/31 04:23:17;;;;;;;;;;;24.60;53.90;;;;;;6254969;28;20097;-41
2022/08/31 04:26:25;;;;;;;;;;;24.60;53.90;;;;;;6255975;28;19924;-41
2022/08/31 04:29:27;;;;;;;;;;;24.50;53.80;;;;;;6253993;28;20830;-41
2022/08/31 04:32:29;;;;;;;;;;;24.70;54.00;;;;;;6252658;28;20674;-39
2022/08/31 04:35:30;;;;;;;;;;;24.70;54.00;;;;;;6252503;28;19970;-42
2022/08/31 04:38:32;;;;;;;;;;;24.70;54.10;;;;;;6253376;28;19940;-39
2022/08/31 04:41:36;;;;;;;;;;;24.40;53.90;;;;;;6252919;28;19933;-42
2022/08/31 04:44:39;;;;;;;;;;;24.70;54.00;;;;;;6250163;28;20753;-40
2022/08/31 04:47:41;;;;;;;;;;;24.60;54.00;;;;;;6254262;28;19972;-39
2022/08/31 04:50:42;;;;;;;;;;;24.60;54.00;;;;;;6233096;28;20492;-41
2022/08/31 04:53:44;;;;;;;;;;;24.60;54.00;;;;;;6237439;28;19932;-39
2022/08/31 04:56:46;;;;;;;;;;;24.60;54.00;;;;;;6252038;28;20926;-40
2022/08/31 04:59:58;;;;;;;;;;;24.50;54.00;;;;;;6252422;28;19924;-42
2022/08/31 05:03:19;;;;;;;;;;;24.80;54.40;;;;;;6252693;28;20035;-43
2022/08/31 05:06:24;;;;;;;;;;;24.60;54.10;;;;;;6248907;28;20751;-40
2022/08/31 05:09:28;;;;;;;;;;;24.60;54.10;;;;;;6250726;28;21766;-41
2022/08/31 05:12:34;;;;;;;;;;;24.50;54.00;;;;;;6251254;28;19932;-42
2022/08/31 05:15:40;;;;;;;;;;;24.70;54.20;;;;;;6251566;28;19932;-39
2022/08/31 05:18:43;;;;;;;;;;;24.70;54.20;;;;;;6249067;28;20025;-44
2022/08/31 05:21:44;;;;;;;;;;;24.70;54.30;;;;;;6235310;28;19970;-43
2022/08/31 05:24:46;;;;;;;;;;;25.00;54.50;;;;;;6247360;28;20003;-41
2022/08/31 05:27:48;;;;;;;;;;;24.60;54.20;;;;;;6253855;28;19982;-40
2022/08/31 05:30:50;;;;;;;;;;;24.60;54.20;;;;;;6247389;28;20796;-39
2022/08/31 05:34:04;;;;;;;;;;;24.60;54.20;;;;;;6249968;28;19932;-43
2022/08/31 05:37:11;;;;;;;;;;;24.50;54.20;;;;;;6249694;28;19932;-39
2022/08/31 05:40:12;;;;;;;;;;;24.40;54.10;;;;;;6242668;28;19935;-41
2022/08/31 05:43:17;;;;;;;;;;;24.30;54.20;;;;;;6246805;28;19972;-42
2022/08/31 05:46:19;;;;;;;;;;;24.50;54.20;;;;;;6242766;28;20007;-40
2022/08/31 05:49:21;;;;;;;;;;;24.60;54.30;;;;;;6248991;28;20888;-41
2022/08/31 05:52:22;;;;;;;;;;;24.70;54.30;;;;;;6238848;28;19928;-40
2022/08/31 05:55:26;;;;;;;;;;;24.60;54.30;;;;;;6245737;28;20768;-41
2022/08/31 05:58:28;;;;;;;;;;;24.70;54.40;;;;;;6241279;28;19974;-43
2022/08/31 06:01:31;;;;;;;;;;;24.60;54.40;;;;;;6218397;28;19930;-40
2022/08/31 06:04:50;;;;;;;;;;;24.50;54.50;;;;;;6220238;28;20010;-39
2022/08/31 06:07:55;;;;;;;;;;;24.30;54.70;;;;;;6238704;28;20763;-39
2022/08/31 06:10:59;;;;;;;;;;;24.30;54.90;;;;;;6231349;28;19982;-40
2022/08/31 06:14:04;;;;;;;;;;;24.00;54.90;;;;;;6212722;28;19939;-40
2022/08/31 06:17:06;;;;;;;;;;;24.00;55.00;;;;;;6202055;28;20782;-40
2022/08/31 06:20:09;;;;;;;;;;;24.20;55.10;;;;;;6233068;28;20009;-41
2022/08/31 06:23:19;;;;;;;;;;;24.00;55.10;;;;;;6227037;28;19944;-41
2022/08/31 06:26:24;;;;;;;;;;;24.00;55.20;;;;;;6225802;28;19932;-41
2022/08/31 06:29:30;;;;;;;;;;;24.10;55.30;;;;;;6184824;28;19932;-40
2022/08/31 06:32:33;;;;;;;;;;;24.00;55.30;;;;;;6212708;28;20050;-42
2022/08/31 06:35:37;;;;;;;;;;;24.20;55.40;;;;;;6205745;28;20058;-40
2022/08/31 06:38:58;;;;;;;;;;;23.80;55.10;;;;;;6097083;28;19939;-40
2022/08/31 06:42:08;;;;;;;;;;;24.10;55.20;;;;;;6199261;28;21277;-43
2022/08/31 06:45:29;;;;;;;;;;;24.00;55.10;;;;;;6199047;28;21323;-42
2022/08/31 06:48:53;;;;;;;;;;;24.10;55.20;;;;;;6203123;28;20010;-41
2022/08/31 06:51:56;;;;;;;;;;;24.10;55.40;;;;;;6183328;28;19932;-40
2022/08/31 06:54:58;;;;;;;;;;;24.00;55.30;;;;;;6175447;28;19933;-41
2022/08/31 06:58:19;;;;;;;;;;;24.10;55.20;;;;;;6164930;28;19939;-41
2022/08/31 07:01:36;;;;;;;;;;;23.90;55.00;;;;;;6136782;28;19939;-40
2022/08/31 07:04:52;;;;;;;;;;;24.10;55.00;;;;;;6091475;28;19939;-40
2022/08/31 07:07:53;;;;;;;;;;;24.40;55.00;;;;;;6066642;28;19999;-39
2022/08/31 07:10:55;;;;;;;;;;;24.50;54.90;;;;;;5689698;28;21703;-41
2022/08/31 07:13:56;;;;;;;;;;;24.30;54.80;;;;;;6087010;28;19933;-39
2022/08/31 07:17:02;;;;;;;;;;;24.30;54.70;;;;;;6096642;28;20021;-40
2022/08/31 07:20:07;;;;;;;;;;;24.30;54.50;;;;;;6130036;28;20193;-40
2022/08/31 07:23:09;;;;;;;;;;;24.40;54.50;;;;;;6112969;28;19938;-40
2022/08/31 07:26:15;;;;;;;;;;;24.50;54.40;;;;;;6118794;28;19971;-41
2022/08/31 07:29:19;;;;;;;;;;;24.50;54.30;;;;;;6114230;28;19932;-40
2022/08/31 07:32:21;;;;;;;;;;;24.50;54.20;;;;;;6097843;28;20020;-40
2022/08/31 07:35:25;;;;;;;;;;;24.80;54.40;;;;;;6112690;28;19932;-40
2022/08/31 07:42:09;;;;;;;;;;;24.50;54.20;;;;;;6105184;28;20692;-39
2022/08/31 07:45:12;;;;;;;;;;;24.70;54.30;;;;;;6084696;28;20051;-40
2022/08/31 07:48:14;;;;;;;;;;;24.90;54.50;;;;;;6098687;28;19939;-52
2022/08/31 07:51:36;;;;;;;;;;;24.50;54.10;;;;;;6118690;28;21534;-37
2022/08/31 07:54:45;;;;;;;;;;;24.70;54.10;;;;;;6097491;28;19932;-40
2022/08/31 07:57:56;;;;;;;;;;;24.70;54.00;;;;;;6092870;28;20936;-39
2022/08/31 08:01:01;;;;;;;;;;;24.80;53.90;;;;;;6059808;28;19936;-40
2022/08/31 08:04:05;;;;;;;;;;;24.70;54.40;;;;;;6077533;28;19932;-40
2022/08/31 08:07:17;;;;;;;;;;;24.80;53.90;;;;;;6068846;28;19986;-40
2022/08/31 08:10:38;;;;;;;;;;;24.80;53.90;;;;;;6093433;28;19983;-42
2022/08/31 08:13:59;;;;;;;;;;;24.90;53.90;;;;;;6068812;28;19939;-41
2022/08/31 08:17:12;;;;;;;;;;;24.70;53.80;;;;;;6115695;28;19936;-40
2022/08/31 08:20:19;;;;;;;;;;;24.80;53.80;;;;;;6094408;28;21307;-40
2022/08/31 08:23:40;;;;;;;;;;;24.90;53.80;;;;;;6056027;28;21444;-41
2022/08/31 08:27:04;;;;;;;;;;;25.00;53.70;;;;;;6116982;28;20141;-42
2022/08/31 08:30:24;;;;;;;;;;;25.20;54.00;;;;;;6084812;28;19998;-41
2022/08/31 08:33:26;;;;;;;;;;;25.10;53.80;;;;;;6059076;28;20019;-40
2022/08/31 08:36:30;;;;;;;;;;;25.10;53.70;;;;;;6123496;28;21526;-43
2022/08/31 08:39:33;;;;;;;;;;;25.10;53.70;;;;;;6115940;28;19939;-41
2022/08/31 08:42:43;;;;;;;;;;;25.30;53.90;;;;;;6089580;28;20032;-40
2022/08/31 08:45:45;;;;;;;;;;;24.90;53.50;;;;;;6120371;28;19988;-40
2022/08/31 08:48:49;;;;;;;;;;;25.30;53.70;;;;;;6080515;28;19938;-41
2022/08/31 08:52:01;;;;;;;;;;;25.20;53.70;;;;;;6104229;28;19932;-42
2022/08/31 08:55:05;;;;;;;;;;;25.30;53.70;;;;;;6087034;28;19972;-42
2022/08/31 08:58:09;;;;;;;;;;;26.70;54.70;;;;;;6055722;28;20001;-41
2022/08/31 09:01:17;;;;;;;;;;;25.20;53.80;;;;;;6105042;28;19932;-39
2022/08/31 09:04:23;;;;;;;;;;;25.30;53.70;;;;;;6073421;28;19932;-43
2022/08/31 09:07:43;;;;;;;;;;;25.30;53.70;;;;;;6089930;28;19932;-40
2022/08/31 09:10:51;;;;;;;;;;;25.10;53.50;;;;;;6089930;28;21912;-41
2022/08/31 09:13:58;;;;;;;;;;;25.30;53.50;;;;;;6078703;28;19931;-43
2022/08/31 09:17:04;;;;;;;;;;;25.40;53.50;;;;;;6087556;28;21252;-41
2022/08/31 09:20:06;;;;;;;;;;;25.50;54.10;;;;;;6108641;28;19932;-42
2022/08/31 09:23:09;;;;;;;;;;;25.60;53.60;;;;;;6073002;28;21445;-42
2022/08/31 09:26:14;;;;;;;;;;;25.50;53.50;;;;;;6105626;28;22596;-41
2022/08/31 09:29:27;;;;;;;;;;;25.50;53.40;;;;;;6106720;28;20062;-39
2022/08/31 09:32:30;;;;;;;;;;;25.60;53.50;;;;;;6077891;28;19946;-41
2022/08/31 09:35:39;;;;;;;;;;;25.50;53.30;;;;;;6072159;28;19937;-42
2022/08/31 09:38:40;;;;;;;;;;;25.60;53.30;;;;;;6074791;28;19932;-42
2022/08/31 09:41:43;;;;;;;;;;;25.70;53.40;;;;;;6091410;28;19940;-42
2022/08/31 09:44:47;;;;;;;;;;;25.60;53.20;;;;;;6049969;28;19938;-41
2022/08/31 09:47:51;;;;;;;;;;;25.50;53.10;;;;;;6120753;28;19936;-42
2022/08/31 09:50:59;;;;;;;;;;;25.80;53.30;;;;;;6060517;28;20013;-46
2022/08/31 09:57:17;;;;;;;;;;;25.70;53.10;;;;;;6071458;28;19938;-42
2022/08/31 10:00:30;;;;;;;;;;;26.00;53.20;;;;;;6047124;28;19932;-45
2022/08/31 10:03:33;;;;;;;;;;;25.90;53.20;;;;;;6064414;28;19939;-42
2022/08/31 10:06:45;;;;;;;;;;;25.90;53.30;;;;;;6083833;28;19944;-40
2022/08/31 10:09:47;;;;;;;;;;;25.90;53.20;;;;;;6100247;28;19938;-46
2022/08/31 10:12:52;;;;;;;;;;;25.90;53.40;;;;;;6097838;28;19931;-41
2022/08/31 10:15:56;;;;;;;;;;;26.00;53.50;;;;;;6081592;28;19932;-41
2022/08/31 10:19:00;;;;;;;;;;;25.80;53.40;;;;;;6036440;28;21013;-43
2022/08/31 10:22:04;;;;;;;;;;;25.80;53.50;;;;;;6087187;28;19932;-41
2022/08/31 10:25:11;;;;;;;;;;;26.00;53.60;;;;;;6087355;28;20413;-40
2022/08/31 10:28:15;;;;;;;;;;;25.90;53.60;;;;;;6058574;28;19932;-41
2022/08/31 10:31:22;;;;;;;;;;;25.70;53.40;;;;;;6088441;28;19938;-41
2022/08/31 10:37:48;;;;;;;;;;;25.90;53.70;;;;;;6103724;28;20301;-42
2022/08/31 10:40:50;;;;;;;;;;;25.60;53.40;;;;;;6072728;28;20841;-40
2022/08/31 10:44:00;;;;;;;;;;;25.40;53.30;;;;;;6146272;28;20030;-41
2022/08/31 10:47:04;;;;;;;;;;;25.70;53.60;;;;;;6162484;28;20121;-41
2022/08/31 10:50:07;;;;;;;;;;;25.80;53.60;;;;;;6159976;28;19932;-42
2022/08/31 10:53:12;;;;;;;;;;;25.50;53.40;;;;;;6136840;28;20125;-42
2022/08/31 10:56:17;;;;;;;;;;;25.80;53.60;;;;;;6178317;28;20050;-42
2022/08/31 10:59:22;;;;;;;;;;;25.80;53.60;;;;;;6170601;28;20509;-43
2022/08/31 11:02:33;;;;;;;;;;;25.80;53.60;;;;;;6166918;28;19940;-41
2022/08/31 11:05:36;;;;;;;;;;;25.70;53.60;;;;;;6158331;28;20971;-42
2022/08/31 11:08:47;;;;;;;;;;;25.70;53.60;;;;;;6148929;28;19932;-41
2022/08/31 11:11:56;;;;;;;;;;;25.80;53.60;;;;;;6166326;28;20084;-41
2022/08/31 11:15:10;;;;;;;;;;;25.80;53.70;;;;;;6167519;28;19932;-42
2022/08/31 11:18:21;;;;;;;;;;;25.50;53.50;;;;;;6178062;28;19932;-40
2022/08/31 11:21:34;;;;;;;;;;;25.50;53.50;;;;;;6182072;28;19942;-42
2022/08/31 11:24:41;;;;;;;;;;;25.70;53.70;;;;;;6123794;28;21023;-40
2022/08/31 11:27:43;;;;;;;;;;;25.70;53.70;;;;;;6187415;28;19982;-42
2022/08/31 11:30:47;;;;;;;;;;;25.70;53.70;;;;;;6158111;28;19978;-41
2022/08/31 11:33:55;;;;;;;;;;;25.70;53.80;;;;;;6152136;28;19932;-41
2022/08/31 11:37:31;;;;;;;;;;;25.70;53.80;;;;;;6159727;28;19932;-42
2022/08/31 11:40:56;;;;;;;;;;;25.70;53.80;;;;;;6113859;28;19932;-39
2022/08/31 11:44:02;;;;;;;;;;;25.80;54.00;;;;;;6103079;28;19932;-40
2022/08/31 11:47:05;;;;;;;;;;;25.70;53.80;;;;;;6145888;28;20262;-39
2022/08/31 11:50:10;;;;;;;;;;;25.90;53.90;;;;;;6155697;28;20059;-42
2022/08/31 11:53:17;;;;;;;;;;;25.80;53.90;;;;;;6109488;28;22633;-40
2022/08/31 11:56:31;;;;;;;;;;;25.80;53.80;;;;;;6118580;28;19940;-44
2022/08/31 11:59:35;;;;;;;;;;;25.80;53.70;;;;;;6097191;28;19932;-39
2022/08/31 12:02:43;;;;;;;;;;;25.80;54.40;;;;;;6050797;28;20172;-39
2022/08/31 12:05:55;;;;;;;;;;;25.80;53.80;;;;;;6088548;28;19932;-39
2022/08/31 12:09:10;;;;;;;;;;;25.90;53.70;;;;;;6042632;28;19940;-39
2022/08/31 12:12:16;;;;;;;;;;;25.80;53.70;;;;;;6063086;28;19940;-39
2022/08/31 12:15:23;;;;;;;;;;;26.00;53.90;;;;;;6049411;28;19942;-40
2022/08/31 12:18:32;;;;;;;;;;;26.00;53.90;;;;;;6113856;28;21033;-39
2022/08/31 12:25:07;;;;;;;;;;;25.80;53.70;;;;;;6102760;28;19940;-39
2022/08/31 12:28:13;;;;;;;;;;;25.90;53.80;;;;;;6080939;28;20012;-43
2022/08/31 12:31:17;;;;;;;;;;;25.80;53.70;;;;;;6066080;28;19940;-39
2022/08/31 12:34:22;;;;;;;;;;;25.60;53.60;;;;;;6084159;28;21372;-39
2022/08/31 12:37:27;;;;;;;;;;;25.80;53.70;;;;;;6071722;28;19932;-39
2022/08/31 12:40:29;;;;;;;;;;;25.80;53.80;;;;;;6093583;28;19932;-39
2022/08/31 12:43:34;;;;;;;;;;;25.80;53.80;;;;;;6085838;28;19983;-39
2022/08/31 12:46:47;;;;;;;;;;;25.90;53.80;;;;;;6087591;28;19950;-38
2022/08/31 12:49:57;;;;;;;;;;;25.80;53.80;;;;;;6089646;28;19973;-40
2022/08/31 12:53:08;;;;;;;;;;;25.90;53.90;;;;;;6070767;28;19933;-40
2022/08/31 12:56:13;;;;;;;;;;;25.70;53.70;;;;;;6071570;28;19932;-40
2022/08/31 12:59:19;;;;;;;;;;;25.90;53.90;;;;;;6086373;28;19939;-39
2022/08/31 13:02:20;;;;;;;;;;;25.80;53.90;;;;;;6095023;28;21618;-46
2022/08/31 13:05:24;;;;;;;;;;;25.80;53.90;;;;;;6098233;28;20689;-40
2022/08/31 13:08:25;;;;;;;;;;;25.80;53.90;;;;;;6066780;28;19932;-40
2022/08/31 13:11:29;;;;;;;;;;;25.60;53.80;;;;;;6082651;28;20716;-40
2022/08/31 13:14:42;;;;;;;;;;;25.60;53.90;;;;;;6058654;28;19940;-41
2022/08/31 13:17:44;;;;;;;;;;;25.80;54.10;;;;;;6064254;28;19952;-39
2022/08/31 13:20:46;;;;;;;;;;;25.60;53.90;;;;;;6059585;28;20248;-40
2022/08/31 13:23:49;;;;;;;;;;;25.80;54.00;;;;;;6070912;28;21377;-40
2022/08/31 13:27:01;;;;;;;;;;;25.80;54.00;;;;;;6096729;28;19932;-40
2022/08/31 13:30:11;;;;;;;;;;;25.80;54.10;;;;;;6052320;28;21874;-41
2022/08/31 13:33:21;;;;;;;;;;;25.70;54.00;;;;;;6027690;28;19993;-40
2022/08/31 13:36:30;;;;;;;;;;;25.60;54.00;;;;;;6049079;28;20066;-40
2022/08/31 13:39:33;;;;;;;;;;;25.80;54.10;;;;;;6065865;28;21129;-40
2022/08/31 13:42:41;;;;;;;;;;;25.80;54.10;;;;;;6056647;28;19932;-40
2022/08/31 13:45:57;;;;;;;;;;;25.80;54.10;;;;;;6084519;28;21030;-40
2022/08/31 13:49:00;;;;;;;;;;;25.80;54.10;;;;;;6037707;28;20269;-41
2022/08/31 13:52:03;;;;;;;;;;;25.70;54.20;;;;;;6078855;28;19932;-40
2022/08/31 13:55:06;;;;;;;;;;;25.50;54.70;;;;;;6068609;28;22509;-39
2022/08/31 13:58:21;;;;;;;;;;;25.80;54.20;;;;;;6060803;28;19939;-40
2022/08/31 14:01:23;;;;;;;;;;;25.80;54.20;;;;;;6052367;28;19938;-42
2022/08/31 14:04:42;;;;;;;;;;;25.80;54.30;;;;;;6033107;28;20996;-41
2022/08/31 14:07:52;;;;;;;;;;;25.70;54.10;;;;;;6099841;28;19939;-41
2022/08/31 14:10:54;;;;;;;;;;;25.80;54.20;;;;;;6074359;28;20097;-42
2022/08/31 14:14:03;;;;;;;;;;;25.50;53.90;;;;;;6094878;28;19931;-41
2022/08/31 14:17:06;;;;;;;;;;;25.80;54.20;;;;;;6107697;28;20592;-41
2022/08/31 14:20:23;;;;;;;;;;;25.80;54.00;;;;;;6073914;28;19931;-43
2022/08/31 14:23:29;;;;;;;;;;;25.90;53.90;;;;;;6092393;28;21319;-42
2022/08/31 14:26:32;;;;;;;;;;;25.90;54.00;;;;;;6061011;28;21269;-43
2022/08/31 14:29:36;;;;;;;;;;;25.60;54.50;;;;;;6068941;28;20276;-39
2022/08/31 14:32:37;;;;;;;;;;;25.80;53.90;;;;;;6055584;28;20112;-38
2022/08/31 14:35:39;;;;;;;;;;;26.00;54.00;;;;;;6094063;28;19938;-39
2022/08/31 14:38:42;;;;;;;;;;;26.00;54.00;;;;;;6072375;28;19936;-39
2022/08/31 14:41:43;;;;;;;;;;;26.00;54.00;;;;;;6089062;28;19946;-39
2022/08/31 14:44:52;;;;;;;;;;;25.70;53.70;;;;;;6102351;28;19936;-39
2022/08/31 14:47:54;;;;;;;;;;;25.90;53.80;;;;;;6092955;28;20092;-39
2022/08/31 14:50:56;;;;;;;;;;;25.90;53.80;;;;;;6047594;28;19944;-39
2022/08/31 14:53:58;;;;;;;;;;;25.90;53.80;;;;;;6074099;28;20066;-39
2022/08/31 14:57:00;;;;;;;;;;;25.80;53.80;;;;;;6098859;28;19939;-39
2022/08/31 15:00:04;;;;;;;;;;;25.70;53.70;;;;;;6081414;28;19940;-40
2022/08/31 15:03:07;;;;;;;;;;;25.70;53.70;;;;;;6106266;28;19939;-38
2022/08/31 15:06:08;;;;;;;;;;;25.90;53.90;;;;;;6101679;28;22178;-39
2022/08/31 15:09:11;;;;;;;;;;;26.00;53.90;;;;;;6086703;28;19939;-40
2022/08/31 15:12:13;;;;;;;;;;;26.20;54.00;;;;;;6070372;28;19940;-40
2022/08/31 15:15:19;;;;;;;;;;;26.10;53.90;;;;;;6078995;28;20717;-39
2022/08/31 15:18:23;;;;;;;;;;;26.20;53.90;;;;;;6097212;28;20260;-42
2022/08/31 15:21:25;;;;;;;;;;;26.20;53.90;;;;;;6115306;28;19944;-39
2022/08/31 15:24:27;;;;;;;;;;;26.10;53.90;;;;;;6116395;28;20678;-38
2022/08/31 15:27:30;;;;;;;;;;;26.00;53.90;;;;;;6097957;28;20927;-39
2022/08/31 15:30:32;;;;;;;;;;;26.10;54.00;;;;;;6083359;28;21058;-39
2022/08/31 15:33:34;;;;;;;;;;;26.10;54.00;;;;;;6088614;28;21394;-39
2022/08/31 15:36:36;;;;;;;;;;;25.90;53.80;;;;;;6097590;28;20101;-39
2022/08/31 15:39:42;;;;;;;;;;;26.10;54.00;;;;;;6093933;28;20449;-39
2022/08/31 15:42:44;;;;;;;;;;;26.00;53.90;;;;;;6108261;28;21851;-39
2022/08/31 15:45:46;;;;;;;;;;;26.10;54.00;;;;;;6124925;28;20476;-39
2022/08/31 15:48:47;;;;;;;;;;;26.20;54.10;;;;;;6094838;28;20340;-39
2022/08/31 15:51:50;;;;;;;;;;;25.80;53.80;;;;;;6139346;28;19932;-39
2022/08/31 15:54:53;;;;;;;;;;;26.00;54.00;;;;;;6136082;28;20121;-42
2022/08/31 15:57:58;;;;;;;;;;;25.80;53.80;;;;;;6143252;28;20510;-41
2022/08/31 16:00:59;;;;;;;;;;;26.40;54.30;;;;;;6148689;28;21293;-39
2022/08/31 16:04:03;;;;;;;;;;;26.00;54.10;;;;;;6125327;28;20930;-39
2022/08/31 16:07:08;;;;;;;;;;;26.00;54.20;;;;;;6123110;28;19939;-39
2022/08/31 16:10:12;;;;;;;;;;;25.90;54.10;;;;;;6128379;28;20443;-41
2022/08/31 16:13:20;;;;;;;;;;;25.90;54.30;;;;;;6149911;28;20203;-40
2022/08/31 16:16:21;;;;;;;;;;;26.00;54.50;;;;;;6151715;28;20839;-40
2022/08/31 16:19:25;;;;;;;;;;;26.20;54.60;;;;;;6175645;28;20160;-40
2022/08/31 16:22:36;;;;;;;;;;;26.00;54.50;;;;;;6167187;28;19982;-40
2022/08/31 16:25:38;;;;;;;;;;;25.90;54.50;;;;;;6155950;28;21221;-41
2022/08/31 16:28:50;;;;;;;;;;;25.90;54.50;;;;;;6143939;28;20784;-42
2022/08/31 16:31:51;;;;;;;;;;;25.80;54.50;;;;;;6151586;28;19939;-41
2022/08/31 16:34:53;;;;;;;;;;;25.90;54.60;;;;;;6171024;28;20191;-44
2022/08/31 16:37:55;;;;;;;;;;;25.90;54.60;;;;;;6203029;28;19932;-40
2022/08/31 16:41:00;;;;;;;;;;;25.70;54.60;;;;;;6205723;28;20018;-41
2022/08/31 16:44:02;;;;;;;;;;;25.70;54.70;;;;;;6197861;28;19946;-40
2022/08/31 16:47:21;;;;;;;;;;;25.80;54.80;;;;;;6195786;28;20840;-42
2022/08/31 16:50:22;;;;;;;;;;;25.80;54.80;;;;;;6214487;28;19932;-40
2022/08/31 16:53:24;;;;;;;;;;;25.70;54.80;;;;;;6221147;28;21051;-40
2022/08/31 16:56:28;;;;;;;;;;;25.70;54.80;;;;;;6222810;28;20930;-41
2022/08/31 16:59:29;;;;;;;;;;;25.80;55.00;;;;;;6210358;28;20801;-41
2022/08/31 17:02:33;;;;;;;;;;;25.80;55.00;;;;;;6226952;28;20061;-40
2022/08/31 17:05:35;;;;;;;;;;;25.50;54.90;;;;;;6220416;28;20048;-41
2022/08/31 17:08:43;;;;;;;;;;;25.50;54.90;;;;;;6221381;28;19932;-40
2022/08/31 17:11:46;;;;;;;;;;;25.70;55.10;;;;;;6226155;28;21053;-40
2022/08/31 17:14:50;;;;;;;;;;;25.10;54.70;;;;;;6221279;28;19932;-40
2022/08/31 17:17:52;;;;;;;;;;;25.60;55.10;;;;;;6226964;28;19971;-40
2022/08/31 17:20:53;;;;;;;;;;;25.70;55.20;;;;;;6228871;28;19940;-40
2022/08/31 17:23:56;;;;;;;;;;;25.50;55.20;;;;;;6228985;28;19932;-40
2022/08/31 17:27:00;;;;;;;;;;;25.40;55.10;;;;;;6233851;28;19953;-40
2022/08/31 17:30:04;;;;;;;;;;;25.30;55.10;;;;;;6232686;28;19961;-41
2022/08/31 17:33:11;;;;;;;;;;;25.70;55.40;;;;;;6232615;28;21130;-40
2022/08/31 17:36:18;;;;;;;;;;;25.50;55.30;;;;;;6234156;28;20058;-40
2022/08/31 17:39:22;;;;;;;;;;;25.50;55.40;;;;;;6230924;28;21051;-40
2022/08/31 17:42:25;;;;;;;;;;;25.40;55.30;;;;;;6193711;28;20310;-42
2022/08/31 17:45:27;;;;;;;;;;;25.70;55.60;;;;;;6216518;28;20220;-40
2022/08/31 17:48:28;;;;;;;;;;;25.40;55.40;;;;;;6217298;28;19963;-41
2022/08/31 17:51:32;;;;;;;;;;;25.50;55.50;;;;;;6213623;28;20346;-42
2022/08/31 17:54:34;;;;;;;;;;;25.30;55.40;;;;;;6197902;28;20273;-40
2022/08/31 17:57:36;;;;;;;;;;;25.60;55.60;;;;;;6193281;28;20096;-41
2022/08/31 18:00:37;;;;;;;;;;;25.30;55.50;;;;;;6215798;28;20193;-43
2022/08/31 18:03:39;;;;;;;;;;;25.60;55.70;;;;;;6220666;28;21140;-40
2022/08/31 18:06:43;;;;;;;;;;;25.60;55.80;;;;;;6223482;28;19936;-41
2022/08/31 18:09:45;;;;;;;;;;;25.40;55.70;;;;;;6213312;28;19939;-40
2022/08/31 18:12:47;;;;;;;;;;;25.50;55.80;;;;;;6216957;28;19959;-40
2022/08/31 18:15:48;;;;;;;;;;;25.60;55.90;;;;;;6220094;28;19932;-42